Naikai2 — JD2433 — position and weather

sailwx.info

Track history (hours):
 
Tides and Currents Weather Stations Pressure Air Temp Water Temp Dewpoint Dewpoint Depression Visibility Wind Speed Wind Dir Waves Ship Positions

Naikai2

Last reported at 2017-Jan-19 06:33 UTC. Time now 2017-Jan-19 06:45 UTC.
Position N 34°14' E 135°05'.

Length 28 m; draft 2.2 m.

Type: Other ship. MMSI: 431000283.

Date/timePositionNaut miles runAvg speedWind from/ knotsBaromVisibWave heightAir tempDewpointWater temp
2017-Jan-19 06:33N 34°14' E 135°05'11 9.3
2017-Jan-19 05:22N 34°24' E 135°01'1012.0
2017-Jan-19 04:33N 34°34' E 135°05'6 0.2
2017-Jan-18 01:17N 34°37' E 134°59'7 8.9
2017-Jan-18 00:33N 34°34' E 135°06'7 6.8
2017-Jan-17 23:30N 34°27' E 135°04'1313.6
2017-Jan-17 22:33N 34°15' E 134°59'4 3.5
2017-Jan-17 21:31N 34°11' E 135°01'11 8.0
2017-Jan-17 20:06N 34°22' E 134°58'3 5.4
2017-Jan-17 19:33N 34°25' E 134°59'7 6.8
2017-Jan-17 18:33N 34°31' E 135°03'4 3.6
2017-Jan-17 17:34N 34°32' E 135°07'2210.9
2017-Jan-17 15:33N 34°12' E 134°59'11 9.9
2017-Jan-17 14:25N 34°23' E 134°59'1214.5
2017-Jan-17 13:33N 34°33' E 135°08'6 0.5
2017-Jan-17 01:16N 34°39' E 135°10'2 2.4
2017-Jan-17 00:33N 34°40' E 135°11'1110.9
2017-Jan-16 23:33N 34°37' E 134°58'8 7.5
2017-Jan-16 22:33N 34°35' E 135°07'5 4.7
2017-Jan-16 21:33N 34°39' E 135°10'0 0.0
2017-Jan-16 10:18N 34°39' E 135°10'912.1
2017-Jan-16 09:33N 34°32' E 135°04'7 3.3
2017-Jan-16 07:33N 34°25' E 135°03'10 9.6
2017-Jan-16 06:33N 34°34' E 135°06'10 1.2
2017-Jan-15 22:23N 34°37' E 134°54'910.5
2017-Jan-15 21:33N 34°35' E 135°05'6 5.7
2017-Jan-15 20:33N 34°39' E 135°10'1 0.0
2017-Jan-15 05:08N 34°39' E 135°10'914.1
2017-Jan-15 04:31N 34°38' E 134°59'4 0.6
2017-Jan-14 22:34N 34°37' E 134°55'1111.1
2017-Jan-14 21:33N 34°36' E 135°08'4 3.6
2017-Jan-14 20:33N 34°39' E 135°10'0 0.0
2017-Jan-14 04:34N 34°39' E 135°10'5 4.8
2017-Jan-14 03:33N 34°36' E 135°05'7 0.3
2017-Jan-13 00:17N 34°36' E 134°56'811.3
2017-Jan-12 23:33N 34°35' E 135°06'6 5.5
2017-Jan-12 22:32N 34°30' E 135°07'1110.6
2017-Jan-12 21:32N 34°20' E 135°01'10 0.6
2017-Jan-12 04:33N 34°30' E 135°04'8 7.8
2017-Jan-12 03:32N 34°37' E 134°58'4 0.2
2017-Jan-11 11:32N 34°37' E 134°54'3 2.5
2017-Jan-11 10:24N 34°36' E 134°57'8 9.5
2017-Jan-11 09:33N 34°36' E 135°06'4 4.1
2017-Jan-11 08:33N 34°39' E 135°10'0 0.0
2017-Jan-11 07:33N 34°39' E 135°10'1 1.3
2017-Jan-11 06:33N 34°40' E 135°11'6 5.6
2017-Jan-11 05:34N 34°36' E 135°06'5 4.7
2017-Jan-11 04:33N 34°36' E 135°01'0 0.2
2017-Jan-11 03:32N 34°36' E 135°01'1 0.6
2017-Jan-11 02:32N 34°37' E 135°00'2 0.4
2017-Jan-10 22:33N 34°37' E 134°59'9 8.9
2017-Jan-10 21:33N 34°33' E 135°08'1110.1
2017-Jan-10 20:26N 34°23' E 135°03'1112.9
2017-Jan-10 19:33N 34°12' E 135°00'16 1.4
2017-Jan-10 08:23N 34°27' E 135°02'8 9.3
2017-Jan-10 07:33N 34°35' E 135°04'  
Track history (hours):
 
Tides and Currents Weather Stations Pressure Air Temp Water Temp Dewpoint Dewpoint Depression Visibility Wind Speed Wind Dir Waves Ship Positions

Naikai2

Last reported at 2017-Jan-19 06:33 UTC. Time now 2017-Jan-19 06:45 UTC.
Position N 34°14' E 135°05'.

Length 28 m; draft 2.2 m.

Type: Other ship. MMSI: 431000283.

Date/timePositionNaut miles runAvg speedWind from/ knotsBaromVisibWave heightAir tempDewpointWater temp
2017-Jan-19 06:33N 34°14' E 135°05'11 9.3
2017-Jan-19 05:22N 34°24' E 135°01'1012.0
2017-Jan-19 04:33N 34°34' E 135°05'6 0.2
2017-Jan-18 01:17N 34°37' E 134°59'7 8.9
2017-Jan-18 00:33N 34°34' E 135°06'7 6.8
2017-Jan-17 23:30N 34°27' E 135°04'1313.6
2017-Jan-17 22:33N 34°15' E 134°59'4 3.5
2017-Jan-17 21:31N 34°11' E 135°01'11 8.0
2017-Jan-17 20:06N 34°22' E 134°58'3 5.4
2017-Jan-17 19:33N 34°25' E 134°59'7 6.8
2017-Jan-17 18:33N 34°31' E 135°03'4 3.6
2017-Jan-17 17:34N 34°32' E 135°07'2210.9
2017-Jan-17 15:33N 34°12' E 134°59'11 9.9
2017-Jan-17 14:25N 34°23' E 134°59'1214.5
2017-Jan-17 13:33N 34°33' E 135°08'6 0.5
2017-Jan-17 01:16N 34°39' E 135°10'2 2.4
2017-Jan-17 00:33N 34°40' E 135°11'1110.9
2017-Jan-16 23:33N 34°37' E 134°58'8 7.5
2017-Jan-16 22:33N 34°35' E 135°07'5 4.7
2017-Jan-16 21:33N 34°39' E 135°10'0 0.0
2017-Jan-16 10:18N 34°39' E 135°10'912.1
2017-Jan-16 09:33N 34°32' E 135°04'7 3.3
2017-Jan-16 07:33N 34°25' E 135°03'10 9.6
2017-Jan-16 06:33N 34°34' E 135°06'10 1.2
2017-Jan-15 22:23N 34°37' E 134°54'910.5
2017-Jan-15 21:33N 34°35' E 135°05'6 5.7
2017-Jan-15 20:33N 34°39' E 135°10'1 0.0
2017-Jan-15 05:08N 34°39' E 135°10'914.1
2017-Jan-15 04:31N 34°38' E 134°59'4 0.6
2017-Jan-14 22:34N 34°37' E 134°55'1111.1
2017-Jan-14 21:33N 34°36' E 135°08'4 3.6
2017-Jan-14 20:33N 34°39' E 135°10'0 0.0
2017-Jan-14 04:34N 34°39' E 135°10'5 4.8
2017-Jan-14 03:33N 34°36' E 135°05'7 0.3
2017-Jan-13 00:17N 34°36' E 134°56'811.3
2017-Jan-12 23:33N 34°35' E 135°06'6 5.5
2017-Jan-12 22:32N 34°30' E 135°07'1110.6
2017-Jan-12 21:32N 34°20' E 135°01'10 0.6
2017-Jan-12 04:33N 34°30' E 135°04'8 7.8
2017-Jan-12 03:32N 34°37' E 134°58'4 0.2
2017-Jan-11 11:32N 34°37' E 134°54'3 2.5
2017-Jan-11 10:24N 34°36' E 134°57'8 9.5
2017-Jan-11 09:33N 34°36' E 135°06'4 4.1
2017-Jan-11 08:33N 34°39' E 135°10'0 0.0
2017-Jan-11 07:33N 34°39' E 135°10'1 1.3
2017-Jan-11 06:33N 34°40' E 135°11'6 5.6
2017-Jan-11 05:34N 34°36' E 135°06'5 4.7
2017-Jan-11 04:33N 34°36' E 135°01'0 0.2
2017-Jan-11 03:32N 34°36' E 135°01'1 0.6
2017-Jan-11 02:32N 34°37' E 135°00'2 0.4
2017-Jan-10 22:33N 34°37' E 134°59'9 8.9
2017-Jan-10 21:33N 34°33' E 135°08'1110.1
2017-Jan-10 20:26N 34°23' E 135°03'1112.9
2017-Jan-10 19:33N 34°12' E 135°00'16 1.4
2017-Jan-10 08:23N 34°27' E 135°02'8 9.3
2017-Jan-10 07:33N 34°35' E 135°04'  

Dump ship's entire track history